メインページ
METAR-TAF:

METAR-TAF

空港 :

ガズヴィーン, イラン

緯度: 36-15N, 経度: 050-00E, 海抜: 1278m

現時点の気象観測

当レポートは1時間2分前の07:00(UTC)に作成
西の風 2kt
気温 11°C
湿度 40%
気圧 1016 hPa
視程10km以上
1,500メートル以下は雲なし、積乱雲なし

METAR: OIIK 190700Z 28002KT CAVOK 11/M02 Q1016

時間: 11:32 (08:02 UTC)


TAF: 見つかりません

4,000以上の空港の気象観測と天気予報(METAR報とTAF報)

利用可能な観測所は地図上に黄色い丸と赤い丸で示す。

丸の上にカーソルを重ねると観測所名を参照できる。

次にクリックすると気象観測と天気予報を参照できる。

マップの切り替え:黒色「×」印の緑ボタンをクリックして拡大、「-」印の緑ボタンをクリックして縮小、緑色の三角印をクリックして隣りの地図に切り替え


METAR-TAF: